Mound, MN (55364)

12:09 PM CDT en Mayo 24, 2015 (GMT -0500)
Grandview | | Change Station
CLOSE
Current Station
Estación meteorológica personal
Location: Mound, MN
Altura: 968 ft
Estaciones meteorológicas cercanas

Alt 968 ft 44.94 °N, 93.67 °W | Updated 54 seconds ago

Lluvia
Lluvia
61.9 ° F
Sensación térmica 61.9 ° F
N
0.0
Viento Variable Viento desde ENE
Gusts 4.0 mph

Hoy
Alta -- | Baja -- ° F
--% Posibilidad de precipitaciones
Ayer
Alta -- | Baja -- ° F
Precip. -- pul
5:37 AM 8:46 PM
Creciente, 40% visible
Presión 30.01 pul
Visibilidad 8.0 Millas
Nubes Nublado 4700 ft
Punto de rocío 58 ° F
Humedad 86%
Precipitaciones 0.02 pul
Espesor de la nieve No disponible.
UV 3 de una escala de 12
Polen 4.10 de una escala de 12
Calidad del aire No disponible.
Flu Activity Sporadic
METAR KFCM 241653Z 09007KT 8SM -RA OVC047 17/14 A3000 RMK AO2 SLP160 P0001 T01670139

More Conditions Fewer Conditions

Presión 30.01 pul
Visibilidad 8.0 Millas
Nubes Nublado 4700 ft
Punto de rocío 58 ° F
Humedad 86%
Precipitaciones 0.02 pul
Espesor de la nieve No disponible.
UV 3 de una escala de 12
Polen 4.10 de una escala de 12
Calidad del aire No disponible.
Flu Activity Sporadic
METAR KFCM 241653Z 09007KT 8SM -RA OVC047 17/14 A3000 RMK AO2 SLP160 P0001 T01670139

More Conditions Fewer Conditions

10-Day Weather Forecast

Almanac

Astronomía

May. 24, 2015 Salida Puesta
Hora real
Crepúsculo civil
Crepúsculo náutico
Crepúsculo astronómico
Luna
Horas de luz
Horas de luz
Tomorrow will be .
, % of the Moon is Illuminated

Extremos de hoy

Máximos del estado Bajos del estado

Community

WunderPhotos

Upload Photos

1,823,794 ¡fotos cargadas!

WunderBlogs® & News

Nearby

Calidad del aire

  Calidad del aire Índice AQ Contaminante
Not available.

Grosos de nieve

Estación Profundido Altura

Actividad de terremotos

Ciudad Distance Mag. Tiempo y dato
Magnitud mínima muestra es 2,5.

Temperaturas de aguas costeras

Lugar Temperatura

Stations

Estaciones meteorológicas cercanas

Ubicación de la estación Temp. Vientos helados Punto de rocío Humedad Viento Precip. Alt Actualizado Tipo